Custer, WA (98240)

9:36 AM PST on December 26, 2014 (GMT -0800)
NE Ferndale | Change Station
CLOSE
Current Station
Personal Weather Station
Location: Ferndale, WA
Elevation: 69 ft
Nearby Weather Stations

Elev 69 ft 48.90 °N, 122.58 °W | Updated 5 minutes ago

Overcast
Overcast
37.4 °F
Feels Like 37 °F
N
0.0
Wind Variable Wind from ENE
Gusts 2.0 mph

Today
High -- | Low -- °F
--% Chance of Precip.
Yesterday
High -- | Low -- °F
Precip. -- in
8:03 AM 4:18 PM
Waxing Crescent, 27% visible
Pressure 30.39 in
Visibility 10.0 miles
Clouds Overcast 1700 ft
Windchill 37 °F
Dew Point 37 °F
Humidity 97%
Rainfall 0.04 in
Snow Depth Not available.
UV 0 out of 12
Pollen .50 out of 12
Air Quality Not available.
Flu Activity Not available.
METAR KBLI 261653Z 00000KT 10SM OVC017 04/03 A3036 RMK AO2 SLP290 T00390028

More Conditions Fewer Conditions

Pressure 30.39 in
Visibility 10.0 miles
Clouds Overcast 1700 ft
Windchill 37 °F
Dew Point 37 °F
Humidity 97%
Rainfall 0.04 in
Snow Depth Not available.
UV 0 out of 12
Pollen .50 out of 12
Air Quality Not available.
Flu Activity Not available.
METAR KBLI 261653Z 00000KT 10SM OVC017 04/03 A3036 RMK AO2 SLP290 T00390028

More Conditions Fewer Conditions

10-Day Weather Forecast

Almanac

Astronomy

Dec. 26, 2014 Rise Set
Actual Time
Civil Twilight
Nautical Twilight
Astronomical Twilight
Moon
Length of Visible Light
Length of Day
Tomorrow will be .
, % of the Moon is Illuminated

Today's Extremes

State Highs State Lows

Community

WunderPhotos

Upload Photos

1,780,646 photos uploaded!

WunderBlogs® & News

Nearby

Air Quality

  Air Quality AQ Index Pollutant
Not available.

Snow Depth

Station Depth Elevation

Earthquake Activity

City Distance Mag. Time & Date
Minimum magnitude displayed is 2.5.

Coastal Water Temperatures

Place Temperature

Nearby Weather Stations